Time;durP1;ratioP1;P1;durP2;ratioP2;P2;SDS_P1;SDS_P2;PMS_P1;PMS_P2;Temp;Humidity;BMP_temperature;BMP_pressure;BME280_temperature;BME280_humidity;BME280_pressure;Samples;Min_cycle;Max_cycle;Signal;HPM_P1;HPM_P2
2023/06/18 00:02:15;;;;;;;22.40;20.40;;;18.60;99.90;;;;;;5053115;28;20835;-78
2023/06/18 00:04:42;;;;;;;21.23;19.43;;;18.60;99.90;;;;;;5053259;28;20520;-79
2023/06/18 00:07:09;;;;;;;23.03;21.07;;;18.60;99.90;;;;;;5053026;28;20467;-79
2023/06/18 00:09:38;;;;;;;20.03;18.33;;;18.60;99.90;;;;;;5052492;28;20467;-78
2023/06/18 00:12:08;;;;;;;22.50;20.57;;;18.60;99.90;;;;;;5053127;28;20455;-77
2023/06/18 00:14:38;;;;;;;22.80;20.87;;;18.70;99.90;;;;;;5053427;28;20471;-80
2023/06/18 00:17:05;;;;;;;21.80;19.60;;;18.60;99.90;;;;;;5052551;28;20540;-80
2023/06/18 00:19:32;;;;;;;21.07;19.27;;;18.60;99.90;;;;;;5054105;28;20470;-79
2023/06/18 00:22:00;;;;;;;20.00;18.40;;;18.60;99.90;;;;;;5057514;28;20582;-79
2023/06/18 00:24:27;;;;;;;20.57;18.70;;;18.60;99.90;;;;;;5072910;28;20462;-78
2023/06/18 00:26:55;;;;;;;22.10;20.13;;;18.70;99.90;;;;;;5072414;28;20473;-79
2023/06/18 00:29:22;;;;;;;23.47;21.27;;;18.60;99.90;;;;;;5055204;28;20467;-80
2023/06/18 00:31:50;;;;;;;20.70;19.00;;;18.60;99.90;;;;;;5052035;28;20487;-78
2023/06/18 00:34:18;;;;;;;19.40;17.80;;;18.60;99.90;;;;;;5052661;28;20860;-78
2023/06/18 00:36:50;;;;;;;23.60;21.53;;;18.70;99.90;;;;;;5065582;28;20459;-79
2023/06/18 00:39:17;;;;;;;21.40;19.63;;;18.60;99.90;;;;;;5072964;28;20536;-77
2023/06/18 00:41:46;;;;;;;22.03;20.10;;;18.60;99.90;;;;;;5072841;28;20466;-78
2023/06/18 00:44:20;;;;;;;19.13;17.53;;;18.60;99.90;;;;;;5072720;28;22050;-77
2023/06/18 00:46:48;;;;;;;19.87;18.20;;;18.60;99.90;;;;;;5071967;28;20504;-78
2023/06/18 00:49:18;;;;;;;23.23;21.13;;;18.60;99.90;;;;;;5072928;28;20466;-77
2023/06/18 00:51:45;;;;;;;21.17;19.43;;;18.60;99.90;;;;;;5055331;28;20468;-79
2023/06/18 00:54:15;;;;;;;22.60;20.40;;;18.60;99.90;;;;;;5053123;28;20551;-77
2023/06/18 00:56:50;;;;;;;21.93;19.90;;;18.60;99.90;;;;;;5055191;28;20478;-78
2023/06/18 00:59:22;;;;;;;20.50;18.70;;;18.50;99.90;;;;;;5055450;28;20925;-79
2023/06/18 01:01:53;;;;;;;16.77;15.23;;;18.50;99.90;;;;;;5056769;28;20475;-77
2023/06/18 01:04:22;;;;;;;23.40;21.13;;;18.50;99.90;;;;;;5056130;28;20961;-80
2023/06/18 01:06:52;;;;;;;21.67;19.90;;;18.50;99.90;;;;;;5056111;28;20490;-78
2023/06/18 01:09:21;;;;;;;20.57;18.77;;;18.50;99.90;;;;;;5067592;28;20457;-80
2023/06/18 01:11:48;;;;;;;21.13;19.03;;;18.50;99.90;;;;;;5076423;28;20485;-77
2023/06/18 01:14:17;;;;;;;23.60;19.90;;;18.40;99.90;;;;;;5075502;28;20531;-80
2023/06/18 01:16:46;;;;;;;21.33;19.40;;;18.40;99.90;;;;;;5076376;28;20591;-77
2023/06/18 01:19:27;;;;;;;21.23;19.47;;;18.40;99.90;;;;;;5075543;28;21005;-80
2023/06/18 01:22:08;;;;;;;24.23;22.13;;;18.40;99.90;;;;;;5076859;28;20466;-78
2023/06/18 01:24:38;;;;;;;24.37;22.17;;;18.30;99.90;;;;;;5076697;28;20462;-78
2023/06/18 01:27:08;;;;;;;19.63;17.77;;;18.40;99.90;;;;;;5071666;28;20460;-78
2023/06/18 01:29:39;;;;;;;18.97;17.33;;;18.30;99.90;;;;;;5057534;28;20489;-80
2023/06/18 01:32:08;;;;;;;19.20;17.70;;;18.40;99.90;;;;;;5069245;28;20979;-80
2023/06/18 01:34:38;;;;;;;23.70;21.60;;;18.30;99.90;;;;;;5075778;28;20470;-78
2023/06/18 01:37:16;;;;;;;22.47;20.47;;;18.30;99.90;;;;;;5075144;28;20595;-78
2023/06/18 01:39:51;;;;;;;25.57;23.07;;;18.30;99.90;;;;;;5075815;28;20862;-78
2023/06/18 01:42:22;;;;;;;24.93;22.83;;;18.30;99.90;;;;;;5075552;28;20939;-78
2023/06/18 01:44:55;;;;;;;22.37;20.47;;;18.20;99.90;;;;;;5074921;28;20527;-78
2023/06/18 01:47:28;;;;;;;24.40;22.33;;;18.20;99.90;;;;;;5076391;28;20466;-78
2023/06/18 01:49:56;;;;;;;22.63;20.73;;;18.20;99.90;;;;;;5075126;28;20812;-78
2023/06/18 01:52:25;;;;;;;22.43;20.33;;;18.20;99.90;;;;;;5061088;28;20470;-80
2023/06/18 01:54:53;;;;;;;23.73;21.73;;;18.20;99.90;;;;;;5055384;28;20471;-79
2023/06/18 01:57:20;;;;;;;21.13;19.43;;;18.20;99.90;;;;;;5066970;28;20907;-79
2023/06/18 01:59:51;;;;;;;22.40;20.50;;;18.20;99.90;;;;;;5075757;28;20501;-80
2023/06/18 02:02:18;;;;;;;27.53;21.83;;;18.20;99.90;;;;;;5070701;28;20858;-78
2023/06/18 02:04:47;;;;;;;22.37;20.37;;;18.20;99.90;;;;;;5075882;28;20502;-79
2023/06/18 02:07:15;;;;;;;22.63;20.63;;;18.20;99.90;;;;;;5073497;28;20466;-80
2023/06/18 02:09:45;;;;;;;22.03;19.93;;;18.20;99.90;;;;;;5074016;28;20466;-78
2023/06/18 02:12:12;;;;;;;20.97;19.03;;;18.20;99.90;;;;;;5055701;28;20447;-78
2023/06/18 02:14:39;;;;;;;19.17;17.67;;;18.20;99.90;;;;;;5054931;28;20980;-80
2023/06/18 02:17:06;;;;;;;22.60;20.73;;;18.10;99.90;;;;;;5055186;28;20848;-78
2023/06/18 02:19:33;;;;;;;21.17;19.33;;;18.10;99.90;;;;;;5055389;28;20471;-79
2023/06/18 02:22:05;;;;;;;22.00;20.10;;;18.20;99.90;;;;;;5054957;28;20474;-79
2023/06/18 02:24:32;;;;;;;23.23;21.30;;;18.20;99.90;;;;;;5055575;28;20505;-80
2023/06/18 02:26:59;;;;;;;24.33;22.33;;;18.10;99.90;;;;;;5055177;28;20471;-79
2023/06/18 02:29:26;;;;;;;24.27;22.17;;;18.00;99.90;;;;;;5073307;28;20466;-80
2023/06/18 02:31:53;;;;;;;23.77;21.77;;;18.00;99.90;;;;;;5076408;28;20470;-80
2023/06/18 02:34:27;;;;;;;23.23;21.33;;;18.00;99.90;;;;;;5076050;28;20470;-80
2023/06/18 02:36:55;;;;;;;20.93;19.20;;;18.00;99.90;;;;;;5076329;28;20466;-80
2023/06/18 02:39:24;;;;;;;24.97;22.67;;;18.00;99.90;;;;;;5073906;28;20960;-79
2023/06/18 02:41:51;;;;;;;23.43;21.47;;;18.00;99.90;;;;;;5072872;28;20477;-78
2023/06/18 02:44:19;;;;;;;22.43;20.23;;;18.00;99.90;;;;;;5070729;28;20448;-79
2023/06/18 02:46:46;;;;;;;22.30;20.40;;;18.00;99.90;;;;;;5054656;28;20480;-78
2023/06/18 02:49:13;;;;;;;25.63;23.23;;;18.00;99.90;;;;;;5054584;28;20451;-79
2023/06/18 02:51:43;;;;;;;23.60;21.53;;;18.00;99.90;;;;;;5062407;28;20469;-79
2023/06/18 02:54:10;;;;;;;23.67;21.40;;;17.90;99.90;;;;;;5079519;28;20467;-79
2023/06/18 02:56:39;;;;;;;23.00;21.00;;;17.90;99.90;;;;;;5077637;28;20972;-79
2023/06/18 02:59:06;;;;;;;22.97;21.10;;;17.90;99.90;;;;;;5074697;28;20968;-78
2023/06/18 03:01:33;;;;;;;22.23;20.43;;;17.90;99.90;;;;;;5075145;28;20478;-78
2023/06/18 03:04:01;;;;;;;23.00;21.03;;;17.90;99.90;;;;;;5051423;28;20983;-80
2023/06/18 03:06:28;;;;;;;23.20;21.20;;;18.00;99.90;;;;;;5064039;28;20478;-79
2023/06/18 03:08:56;;;;;;;21.60;19.70;;;17.90;99.90;;;;;;5060214;28;20550;-78
2023/06/18 03:11:23;;;;;;;21.57;19.63;;;17.90;99.90;;;;;;5054983;28;20529;-78
2023/06/18 03:13:51;;;;;;;21.50;19.50;;;17.90;99.90;;;;;;5054480;28;20498;-80
2023/06/18 03:16:18;;;;;;;21.50;19.60;;;18.00;99.90;;;;;;5054668;28;21461;-80
2023/06/18 03:18:45;;;;;;;23.53;21.30;;;18.00;99.90;;;;;;5054489;28;20475;-78
2023/06/18 03:21:12;;;;;;;21.53;19.63;;;18.00;99.90;;;;;;5054423;28;20467;-80
2023/06/18 03:23:39;;;;;;;20.20;18.50;;;17.90;99.90;;;;;;5056453;28;20467;-79
2023/06/18 03:26:06;;;;;;;23.23;21.23;;;17.90;99.90;;;;;;5058265;28;20482;-79
2023/06/18 03:28:34;;;;;;;23.03;21.00;;;17.90;99.90;;;;;;5055799;28;20467;-79
2023/06/18 03:31:02;;;;;;;22.53;20.63;;;18.00;99.90;;;;;;5055775;28;20537;-79
2023/06/18 03:33:30;;;;;;;19.97;18.30;;;18.00;99.90;;;;;;5055562;28;20476;-79
2023/06/18 03:36:00;;;;;;;20.53;18.73;;;18.00;99.90;;;;;;5061699;28;20475;-79
2023/06/18 03:38:28;;;;;;;23.83;21.70;;;18.00;99.90;;;;;;5067176;28;20459;-78
2023/06/18 03:40:55;;;;;;;21.13;19.43;;;18.00;99.90;;;;;;5064504;28;20490;-79
2023/06/18 03:43:22;;;;;;;22.23;20.37;;;18.00;99.90;;;;;;5067257;28;20521;-80
2023/06/18 03:45:50;;;;;;;22.30;20.30;;;18.00;99.90;;;;;;5061081;28;20463;-80
2023/06/18 03:48:19;;;;;;;21.40;19.43;;;18.00;99.90;;;;;;5055981;28;20467;-80
2023/06/18 03:50:46;;;;;;;24.30;22.00;;;18.00;99.90;;;;;;5054410;28;20999;-79
2023/06/18 03:53:13;;;;;;;19.17;17.47;;;18.00;99.90;;;;;;5053256;28;20501;-80
2023/06/18 03:55:41;;;;;;;18.40;17.00;;;18.00;99.90;;;;;;5053986;28;20476;-80
2023/06/18 03:58:08;;;;;;;19.50;17.90;;;18.10;99.90;;;;;;5055760;28;20467;-78
2023/06/18 04:00:35;;;;;;;22.50;20.47;;;18.10;99.90;;;;;;5055070;28;20463;-77
2023/06/18 04:03:04;;;;;;;22.47;20.60;;;18.10;99.90;;;;;;5054360;28;20817;-79
2023/06/18 04:05:33;;;;;;;23.47;21.40;;;18.20;99.90;;;;;;5053678;28;20455;-79
2023/06/18 04:08:00;;;;;;;20.37;18.40;;;18.20;99.90;;;;;;5054238;28;20965;-78
2023/06/18 04:10:27;;;;;;;19.10;17.40;;;18.20;99.90;;;;;;5053221;28;20471;-78
2023/06/18 04:12:55;;;;;;;21.63;19.90;;;18.30;99.90;;;;;;5053986;28;20463;-78
2023/06/18 04:15:22;;;;;;;19.83;18.20;;;18.30;99.90;;;;;;5053242;28;20965;-79
2023/06/18 04:17:49;;;;;;;21.40;19.60;;;18.30;99.90;;;;;;5053196;28;20478;-77
2023/06/18 04:20:16;;;;;;;21.90;20.10;;;18.40;99.90;;;;;;5053131;28;20475;-78
2023/06/18 04:22:45;;;;;;;20.57;18.97;;;18.40;99.90;;;;;;5052819;28;20882;-78
2023/06/18 04:25:12;;;;;;;18.83;17.40;;;18.50;99.90;;;;;;5052753;28;20817;-77
2023/06/18 04:27:39;;;;;;;18.70;17.10;;;18.50;99.90;;;;;;5053405;28;20470;-79
2023/06/18 04:30:08;;;;;;;18.60;17.10;;;18.60;99.90;;;;;;5053327;28;20478;-78
2023/06/18 04:32:35;;;;;;;20.17;18.53;;;18.60;99.90;;;;;;5056998;28;20769;-79
2023/06/18 04:35:02;;;;;;;18.33;16.87;;;18.60;99.90;;;;;;5056710;28;21040;-79
2023/06/18 04:37:31;;;;;;;20.80;19.00;;;18.70;99.90;;;;;;5028104;28;20479;-77
2023/06/18 04:39:59;;;;;;;21.03;19.23;;;18.70;99.90;;;;;;5037046;28;20464;-78
2023/06/18 04:42:26;;;;;;;16.63;15.33;;;18.80;99.90;;;;;;5036630;28;21031;-78
2023/06/18 04:44:53;;;;;;;16.20;14.90;;;18.80;99.90;;;;;;5037111;28;20468;-80
2023/06/18 04:47:20;;;;;;;16.40;15.00;;;18.90;99.90;;;;;;5036312;28;20522;-79
2023/06/18 04:49:47;;;;;;;19.10;17.40;;;18.90;99.90;;;;;;5036646;28;20471;-78
2023/06/18 04:52:14;;;;;;;16.50;15.20;;;19.00;99.90;;;;;;5036834;28;21044;-77
2023/06/18 04:54:41;;;;;;;16.77;15.47;;;19.10;99.90;;;;;;5035924;28;20929;-77
2023/06/18 04:57:12;;;;;;;18.00;16.60;;;19.10;99.90;;;;;;5037155;28;20476;-77
2023/06/18 04:59:40;;;;;;;16.93;15.60;;;19.20;99.90;;;;;;5036308;28;20514;-81
2023/06/18 05:02:07;;;;;;;18.33;14.60;;;19.20;99.90;;;;;;5036353;28;20551;-78
2023/06/18 05:04:34;;;;;;;17.63;15.97;;;19.30;99.90;;;;;;5036542;28;20468;-79
2023/06/18 05:07:01;;;;;;;18.03;16.63;;;19.30;99.90;;;;;;5036752;28;20799;-80
2023/06/18 05:09:30;;;;;;;15.97;14.73;;;19.40;99.90;;;;;;5036272;28;20546;-78
2023/06/18 05:11:57;;;;;;;19.40;17.80;;;19.40;99.90;;;;;;5036259;28;20484;-78
2023/06/18 05:14:26;;;;;;;15.10;14.00;;;19.50;99.90;;;;;;5035855;28;20467;-78
2023/06/18 05:16:53;;;;;;;17.03;15.63;;;19.50;99.90;;;;;;5035992;28;20464;-78
2023/06/18 05:19:20;;;;;;;16.37;15.03;;;19.50;99.90;;;;;;5035687;28;20526;-78
2023/06/18 05:21:47;;;;;;;16.13;14.73;;;19.60;99.90;;;;;;5036157;28;20604;-79
2023/06/18 05:24:14;;;;;;;14.97;13.83;;;19.60;99.90;;;;;;5035936;28;20464;-79
2023/06/18 05:26:41;;;;;;;15.53;14.33;;;19.70;99.90;;;;;;5035003;28;20460;-78
2023/06/18 05:29:08;;;;;;;15.20;14.00;;;19.70;99.90;;;;;;5036186;28;20522;-80
2023/06/18 05:31:36;;;;;;;15.07;13.87;;;19.80;99.90;;;;;;5035879;28;20559;-79
2023/06/18 05:34:04;;;;;;;15.20;14.03;;;19.90;99.90;;;;;;5036140;28;20468;-79
2023/06/18 05:36:32;;;;;;;16.10;14.73;;;19.90;99.90;;;;;;5043919;28;20467;-79
2023/06/18 05:39:00;;;;;;;16.80;15.50;;;19.90;99.90;;;;;;5056175;28;20961;-78
2023/06/18 05:41:27;;;;;;;16.30;14.93;;;20.00;99.90;;;;;;5055743;28;20844;-78
2023/06/18 05:44:01;;;;;;;14.50;13.30;;;20.10;99.90;;;;;;5056045;28;20467;-78
2023/06/18 05:46:28;;;;;;;17.00;15.70;;;20.10;99.90;;;;;;5055006;28;20513;-79
2023/06/18 05:48:56;;;;;;;15.80;14.60;;;20.20;99.90;;;;;;5056150;28;20952;-78
2023/06/18 05:51:23;;;;;;;15.20;14.00;;;20.30;99.90;;;;;;5055263;28;20467;-79
2023/06/18 05:53:51;;;;;;;15.00;13.87;;;20.40;99.90;;;;;;5056226;28;20824;-80
2023/06/18 05:56:18;;;;;;;17.83;16.33;;;20.40;99.90;;;;;;5055156;28;20541;-78
2023/06/18 05:58:45;;;;;;;16.73;15.53;;;20.50;99.90;;;;;;5055469;28;20851;-78
2023/06/18 06:01:16;;;;;;;15.23;13.90;;;20.60;99.90;;;;;;5056060;28;20477;-79
2023/06/18 06:03:43;;;;;;;14.60;13.43;;;20.70;99.90;;;;;;5043830;28;20525;-79
2023/06/18 06:06:11;;;;;;;12.77;11.80;;;20.80;99.90;;;;;;5055228;28;20477;-78
2023/06/18 06:08:38;;;;;;;13.20;12.20;;;20.90;99.90;;;;;;5055193;28;20534;-78
2023/06/18 06:11:06;;;;;;;13.43;12.33;;;21.00;99.90;;;;;;5055894;28;20475;-78
2023/06/18 06:13:33;;;;;;;10.30;9.60;;;21.10;99.90;;;;;;5054526;28;20497;-78
2023/06/18 06:16:00;;;;;;;8.90;8.20;;;21.30;99.90;;;;;;5055527;28;20467;-79
2023/06/18 06:18:27;;;;;;;9.47;8.67;;;21.50;99.90;;;;;;5055259;28;20533;-78
2023/06/18 06:20:54;;;;;;;9.50;8.80;;;21.60;99.90;;;;;;5054364;28;20469;-78
2023/06/18 06:23:22;;;;;;;8.80;8.20;;;21.70;99.90;;;;;;5055300;28;20467;-79
2023/06/18 06:25:49;;;;;;;10.83;9.90;;;21.90;99.90;;;;;;5054179;28;20494;-79
2023/06/18 06:28:16;;;;;;;9.53;8.83;;;22.10;99.90;;;;;;5054586;28;20505;-77
2023/06/18 06:30:43;;;;;;;9.10;8.40;;;22.30;99.90;;;;;;5054797;28;20478;-78
2023/06/18 06:33:10;;;;;;;8.87;8.17;;;22.40;99.90;;;;;;5055015;28;20463;-79
2023/06/18 06:35:37;;;;;;;8.43;7.83;;;22.50;99.90;;;;;;5053710;28;20486;-79
2023/06/18 06:38:04;;;;;;;6.50;6.00;;;22.70;99.90;;;;;;5054816;28;20466;-78
2023/06/18 06:40:33;;;;;;;7.80;7.10;;;22.90;99.90;;;;;;5054970;28;20472;-79
2023/06/18 06:43:00;;;;;;;8.50;7.70;;;23.00;99.90;;;;;;5054842;28;20476;-78
2023/06/18 06:45:27;;;;;;;9.07;8.20;;;23.20;99.90;;;;;;5054582;28;20471;-77
2023/06/18 06:47:54;;;;;;;7.70;7.10;;;23.30;99.90;;;;;;5053854;28;20545;-80
2023/06/18 06:50:22;;;;;;;7.50;6.90;;;23.50;99.90;;;;;;5054434;28;20837;-80
2023/06/18 06:52:49;;;;;;;7.37;6.77;;;23.60;99.90;;;;;;5053504;28;20802;-80
2023/06/18 06:55:16;;;;;;;9.30;8.50;;;23.80;99.90;;;;;;5053555;28;20536;-78
2023/06/18 06:57:45;;;;;;;8.80;8.20;;;24.00;99.90;;;;;;5053832;28;20475;-78
2023/06/18 07:00:13;;;;;;;8.87;8.13;;;24.10;99.90;;;;;;5054215;28;20961;-78
2023/06/18 07:02:40;;;;;;;9.00;8.33;;;24.20;99.90;;;;;;5053687;28;20801;-78
2023/06/18 07:05:08;;;;;;;8.73;8.03;;;24.30;99.90;;;;;;5053986;28;20471;-78
2023/06/18 07:07:36;;;;;;;9.63;8.83;;;24.40;99.90;;;;;;5054641;28;20470;-78
2023/06/18 07:10:04;;;;;;;9.60;8.80;;;24.50;99.90;;;;;;5054094;28;20538;-79
2023/06/18 07:12:31;;;;;;;9.40;8.53;;;24.60;99.90;;;;;;5054743;28;20501;-79
2023/06/18 07:15:00;;;;;;;8.67;7.97;;;24.70;99.90;;;;;;5053733;28;20467;-78
2023/06/18 07:17:27;;;;;;;8.83;8.13;;;24.80;99.90;;;;;;5054339;28;20491;-80
2023/06/18 07:19:55;;;;;;;8.97;8.27;;;24.80;99.90;;;;;;5053800;28;20944;-80
2023/06/18 07:22:22;;;;;;;10.00;9.13;;;24.90;99.90;;;;;;5043523;28;20534;-79
2023/06/18 07:24:49;;;;;;;9.70;9.00;;;25.00;99.90;;;;;;5052735;28;20475;-80
2023/06/18 07:27:16;;;;;;;10.07;9.17;;;25.10;99.90;;;;;;5053524;28;20467;-80
2023/06/18 07:29:43;;;;;;;10.27;9.47;;;25.20;99.90;;;;;;5053609;28;20520;-80
2023/06/18 07:32:11;;;;;;;10.67;9.80;;;25.30;99.90;;;;;;5053465;28;20785;-79
2023/06/18 07:34:38;;;;;;;10.87;9.87;;;25.40;99.90;;;;;;5053870;28;20478;-79
2023/06/18 07:37:06;;;;;;;9.03;8.40;;;25.50;99.90;;;;;;5052632;28;20511;-80
2023/06/18 07:39:33;;;;;;;11.47;10.57;;;25.60;99.90;;;;;;5053413;28;20476;-80
2023/06/18 07:42:00;;;;;;;10.97;10.07;;;25.80;99.90;;;;;;5045193;28;20551;-79
2023/06/18 07:44:28;;;;;;;10.53;9.73;;;25.90;99.90;;;;;;5054972;28;20467;-80
2023/06/18 07:46:55;;;;;;;10.17;9.37;;;26.00;99.90;;;;;;5053459;28;20482;-80
2023/06/18 07:49:24;;;;;;;7.47;6.87;;;26.20;99.90;;;;;;5054415;28;20521;-80
2023/06/18 07:51:51;;;;;;;9.30;8.60;;;26.30;99.90;;;;;;5054001;28;20851;-79
2023/06/18 07:54:18;;;;;;;9.40;8.70;;;26.50;99.90;;;;;;5054807;28;20464;-79
2023/06/18 07:56:45;;;;;;;10.40;9.47;;;26.60;99.90;;;;;;5056971;28;20527;-80
2023/06/18 07:59:12;;;;;;;7.90;7.40;;;26.60;99.90;;;;;;5055688;28;20773;-80
2023/06/18 08:01:39;;;;;;;8.23;7.63;;;26.70;99.90;;;;;;5057942;28;21005;-79
2023/06/18 08:04:06;;;;;;;8.83;8.17;;;26.80;99.90;;;;;;5062865;28;20483;-79
2023/06/18 08:06:35;;;;;;;7.03;6.60;;;26.90;99.90;;;;;;5056895;28;20466;-79
2023/06/18 08:09:02;;;;;;;6.60;6.00;;;26.90;98.80;;;;;;5056555;28;20980;-80
2023/06/18 08:11:31;;;;;;;7.27;6.67;;;26.90;97.40;;;;;;5057082;28;20462;-78
2023/06/18 08:13:58;;;;;;;7.03;6.53;;;27.00;96.50;;;;;;5059312;28;20509;-78
2023/06/18 08:16:25;;;;;;;6.30;5.90;;;27.00;96.50;;;;;;5057433;28;20480;-79
2023/06/18 08:18:52;;;;;;;7.50;6.90;;;27.00;96.40;;;;;;5058993;28;20698;-79
2023/06/18 08:21:20;;;;;;;6.53;6.13;;;26.90;96.70;;;;;;5054843;28;20470;-79
2023/06/18 08:23:49;;;;;;;7.00;6.53;;;26.80;97.20;;;;;;5054545;28;20468;-77
2023/06/18 08:26:16;;;;;;;8.37;7.70;;;26.60;97.80;;;;;;5054189;28;20461;-77
2023/06/18 08:28:43;;;;;;;7.47;6.97;;;26.50;97.40;;;;;;5055613;28;20480;-78
2023/06/18 08:31:10;;;;;;;9.93;6.50;;;26.50;97.40;;;;;;5055677;28;20471;-78
2023/06/18 08:33:37;;;;;;;8.07;7.33;;;26.40;97.80;;;;;;5053998;28;20564;-79
2023/06/18 08:36:05;;;;;;;7.70;7.10;;;26.40;97.20;;;;;;5056506;28;21046;-79
2023/06/18 08:38:32;;;;;;;8.93;8.20;;;26.40;97.30;;;;;;5057429;28;20809;-78
2023/06/18 08:41:01;;;;;;;7.30;6.70;;;26.50;96.50;;;;;;5055454;28;20961;-78
2023/06/18 08:43:34;;;;;;;6.27;5.87;;;26.50;96.00;;;;;;5055180;28;20464;-79
2023/06/18 08:46:04;;;;;;;6.47;6.00;;;26.60;95.80;;;;;;5059337;28;20474;-78
2023/06/18 08:48:35;;;;;;;8.63;8.00;;;26.60;95.50;;;;;;5058936;28;20478;-78
2023/06/18 08:51:05;;;;;;;8.20;7.40;;;26.70;95.70;;;;;;5057031;28;20470;-76
2023/06/18 08:53:40;;;;;;;7.00;6.40;;;26.80;95.70;;;;;;5065290;28;20531;-78
2023/06/18 08:56:09;;;;;;;7.20;6.70;;;26.80;94.30;;;;;;5062354;28;20483;-77
2023/06/18 08:58:44;;;;;;;7.33;6.80;;;26.80;94.30;;;;;;5052962;28;20472;-78
2023/06/18 09:01:13;;;;;;;6.83;6.23;;;26.90;93.40;;;;;;5052196;28;20561;-77
2023/06/18 09:03:42;;;;;;;7.80;7.20;;;26.90;93.70;;;;;;5053209;28;20469;-79
2023/06/18 09:06:11;;;;;;;7.43;6.83;;;27.00;93.80;;;;;;5052386;28;20470;-78
2023/06/18 09:08:38;;;;;;;7.37;6.77;;;27.00;93.80;;;;;;5052886;28;20478;-77
2023/06/18 09:11:06;;;;;;;9.43;8.73;;;27.10;93.70;;;;;;5051787;28;20473;-78
2023/06/18 09:13:34;;;;;;;7.57;7.00;;;27.00;93.80;;;;;;5066180;28;20467;-78
2023/06/18 09:16:01;;;;;;;9.83;9.03;;;27.00;94.00;;;;;;5060851;28;20546;-79
2023/06/18 09:18:29;;;;;;;7.77;7.27;;;26.90;93.90;;;;;;5061696;28;20473;-78
2023/06/18 09:20:56;;;;;;;7.90;7.40;;;26.80;93.90;;;;;;5058244;28;20472;-78
2023/06/18 09:23:23;;;;;;;7.73;7.10;;;26.60;94.10;;;;;;5058930;28;20506;-78
2023/06/18 09:25:52;;;;;;;6.90;6.23;;;26.50;94.20;;;;;;5059524;28;20482;-78
2023/06/18 09:28:20;;;;;;;6.80;6.30;;;26.40;93.60;;;;;;5058297;28;20472;-78
2023/06/18 09:30:52;;;;;;;5.87;5.37;;;26.40;93.70;;;;;;5059625;28;20838;-77
2023/06/18 09:33:34;;;;;;;5.93;5.43;;;26.40;93.60;;;;;;5061760;28;20456;-80
2023/06/18 09:36:02;;;;;;;6.10;5.70;;;26.40;93.50;;;;;;5063716;28;20481;-79
2023/06/18 09:38:34;;;;;;;6.37;5.77;;;26.50;93.50;;;;;;5060037;28;20844;-79
2023/06/18 09:41:02;;;;;;;6.27;5.67;;;26.40;93.70;;;;;;5060197;28;20547;-80
2023/06/18 09:43:36;;;;;;;5.93;5.60;;;26.40;92.90;;;;;;5053267;28;20541;-78
2023/06/18 09:46:08;;;;;;;6.20;5.70;;;26.40;92.60;;;;;;5060387;28;20470;-80
2023/06/18 09:48:37;;;;;;;5.33;5.00;;;26.30;91.90;;;;;;5059780;28;20533;-80
2023/06/18 09:51:04;;;;;;;5.73;5.40;;;26.20;92.40;;;;;;5055012;28;20467;-79
2023/06/18 09:53:31;;;;;;;5.17;4.87;;;26.10;92.30;;;;;;5056890;28;20478;-79
2023/06/18 09:56:09;;;;;;;6.27;5.77;;;26.10;92.40;;;;;;5056181;28;20472;-78
2023/06/18 09:58:41;;;;;;;6.20;5.80;;;26.10;92.50;;;;;;5055811;28;20471;-78
2023/06/18 10:01:10;;;;;;;6.20;5.70;;;26.10;92.90;;;;;;5056971;28;20467;-78
2023/06/18 10:03:37;;;;;;;6.07;5.63;;;26.00;92.80;;;;;;5056150;28;20573;-80
2023/06/18 10:06:12;;;;;;;5.43;5.03;;;26.10;92.40;;;;;;5055665;28;20463;-79
2023/06/18 10:08:42;;;;;;;6.13;5.73;;;26.20;92.50;;;;;;5056594;28;20816;-79
2023/06/18 10:11:11;;;;;;;7.53;6.97;;;26.20;92.50;;;;;;5057231;28;20898;-77
2023/06/18 10:13:41;;;;;;;6.87;6.37;;;26.30;92.80;;;;;;5056786;28;20463;-77
2023/06/18 10:16:13;;;;;;;6.23;5.83;;;26.30;92.00;;;;;;5057310;28;20471;-79
2023/06/18 10:19:01;;;;;;;6.30;5.80;;;26.30;92.00;;;;;;5057817;28;20463;-79
2023/06/18 10:21:29;;;;;;;6.57;6.17;;;26.30;91.40;;;;;;5054384;28;20528;-79
2023/06/18 10:24:00;;;;;;;6.77;6.27;;;26.30;91.90;;;;;;5055746;28;20496;-78
2023/06/18 10:26:29;;;;;;;6.80;6.30;;;26.30;91.60;;;;;;5053480;28;20954;-78
2023/06/18 10:28:57;;;;;;;6.50;6.00;;;26.30;91.30;;;;;;5052454;28;20517;-78
2023/06/18 10:31:26;;;;;;;5.43;5.03;;;26.40;91.30;;;;;;5052900;28;20467;-77
2023/06/18 10:33:56;;;;;;;5.37;5.07;;;26.40;91.20;;;;;;5053228;28;20802;-77
2023/06/18 10:36:24;;;;;;;6.47;5.83;;;26.40;91.20;;;;;;5052322;28;20484;-78
2023/06/18 10:38:52;;;;;;;6.17;5.67;;;26.40;90.70;;;;;;5053201;28;20471;-77
2023/06/18 10:41:21;;;;;;;6.07;5.57;;;26.50;90.60;;;;;;5051904;28;21082;-78
2023/06/18 10:43:51;;;;;;;6.00;5.60;;;26.50;90.80;;;;;;5053223;28;20472;-79
2023/06/18 10:46:18;;;;;;;6.07;5.53;;;26.60;90.80;;;;;;5077090;23;20545;-80
2023/06/18 10:49:16;;;;;;;6.63;6.13;;;26.60;90.30;;;;;;5052643;28;20461;-79
2023/06/18 10:51:51;;;;;;;7.00;6.50;;;26.60;90.30;;;;;;5052204;28;20472;-79
2023/06/18 10:54:23;;;;;;;7.00;6.50;;;26.70;90.60;;;;;;5052307;28;20863;-78
2023/06/18 10:56:51;;;;;;;6.47;5.87;;;26.70;90.20;;;;;;5052229;28;20461;-78
2023/06/18 10:59:34;;;;;;;6.53;6.13;;;26.70;90.00;;;;;;5053026;28;20483;-80
2023/06/18 11:02:01;;;;;;;7.80;7.30;;;26.80;90.00;;;;;;5054244;28;20545;-80
2023/06/18 11:04:33;;;;;;;7.13;6.53;;;26.80;90.20;;;;;;5054050;28;20462;-80
2023/06/18 11:07:19;;;;;;;6.87;6.37;;;26.80;89.10;;;;;;5054166;28;20477;-79
2023/06/18 11:09:48;;;;;;;5.80;5.30;;;26.80;88.50;;;;;;5054511;28;20480;-79
2023/06/18 11:12:19;;;;;;;5.83;5.43;;;26.90;88.10;;;;;;5053191;28;20468;-80
2023/06/18 11:15:08;;;;;;;6.70;6.10;;;26.90;87.50;;;;;;5054402;28;20472;-80
2023/06/18 11:17:35;;;;;;;6.80;5.50;;;26.90;85.70;;;;;;5054192;28;20457;-79
2023/06/18 11:20:04;;;;;;;5.87;5.37;;;26.90;85.40;;;;;;5054009;28;20824;-78
2023/06/18 11:22:32;;;;;;;4.83;4.53;;;26.90;84.20;;;;;;5053780;28;20857;-78
2023/06/18 11:25:02;;;;;;;4.40;4.10;;;26.90;82.30;;;;;;5053945;28;20504;-78
2023/06/18 11:27:30;;;;;;;5.03;4.63;;;26.90;80.40;;;;;;5054284;28;20477;-78
2023/06/18 11:29:58;;;;;;;4.73;4.43;;;26.90;81.00;;;;;;5053169;28;20454;-80
2023/06/18 11:32:26;;;;;;;5.87;5.37;;;26.80;82.30;;;;;;5053283;28;20476;-79
2023/06/18 11:34:57;;;;;;;6.80;6.30;;;26.80;84.30;;;;;;5053176;28;20476;-79
2023/06/18 11:37:27;;;;;;;6.10;5.50;;;26.80;85.80;;;;;;5050280;28;20468;-77
2023/06/18 11:39:54;;;;;;;6.97;6.37;;;26.80;86.90;;;;;;5047888;28;20486;-79
2023/06/18 11:42:23;;;;;;;7.07;6.57;;;26.70;87.50;;;;;;5047024;28;20465;-78
2023/06/18 11:44:51;;;;;;;13.57;12.47;;;26.60;88.00;;;;;;5062406;28;20459;-79
2023/06/18 11:47:19;;;;;;;16.70;15.40;;;26.60;88.80;;;;;;5064756;28;20524;-79
2023/06/18 11:49:47;;;;;;;11.47;10.67;;;26.50;89.80;;;;;;5072728;28;20467;-79
2023/06/18 11:52:18;;;;;;;9.60;8.90;;;26.50;90.00;;;;;;5073353;28;20524;-78
2023/06/18 11:54:46;;;;;;;9.13;8.33;;;26.50;89.50;;;;;;5069155;28;20866;-77
2023/06/18 11:57:14;;;;;;;7.10;6.60;;;26.40;90.20;;;;;;5051733;28;20467;-79
2023/06/18 11:59:43;;;;;;;6.97;6.47;;;26.40;89.40;;;;;;5050636;28;20529;-79
2023/06/18 12:02:11;;;;;;;7.40;6.80;;;26.50;89.40;;;;;;5051708;28;20469;-78
2023/06/18 12:04:39;;;;;;;6.80;6.30;;;26.50;89.80;;;;;;5051574;28;20844;-78
2023/06/18 12:07:06;;;;;;;7.87;7.27;;;26.60;88.20;;;;;;5050699;28;20500;-79
2023/06/18 12:09:35;;;;;;;6.80;6.30;;;26.60;89.20;;;;;;5051725;28;20479;-78
2023/06/18 12:12:17;;;;;;;7.20;6.60;;;26.70;87.80;;;;;;5051573;28;20460;-79
2023/06/18 12:14:53;;;;;;;8.57;7.97;;;26.80;87.20;;;;;;5052717;28;20468;-78
2023/06/18 12:17:28;;;;;;;7.67;7.17;;;26.80;87.60;;;;;;5053869;28;20959;-78
2023/06/18 12:20:00;;;;;;;7.30;6.83;;;26.90;87.60;;;;;;5053287;28;20468;-78
2023/06/18 12:22:28;;;;;;;7.63;7.07;;;26.90;87.90;;;;;;5052609;28;20966;-78
2023/06/18 12:24:56;;;;;;;8.20;7.40;;;26.90;86.80;;;;;;5054605;28;20820;-78
2023/06/18 12:27:25;;;;;;;7.50;6.90;;;27.00;86.30;;;;;;5053222;28;20477;-78
2023/06/18 12:29:54;;;;;;;7.93;7.43;;;27.00;86.90;;;;;;5053664;28;20873;-78
2023/06/18 12:32:21;;;;;;;8.00;7.20;;;27.00;86.60;;;;;;5052860;28;20477;-77
2023/06/18 12:34:50;;;;;;;6.77;6.20;;;27.00;85.30;;;;;;5054248;28;20526;-78
2023/06/18 12:37:17;;;;;;;6.87;6.37;;;27.00;84.70;;;;;;5052511;28;20959;-78
2023/06/18 12:40:09;;;;;;;5.73;5.33;;;26.90;83.90;;;;;;5045995;28;20464;-78
2023/06/18 12:42:38;;;;;;;5.93;5.53;;;26.90;82.70;;;;;;5051191;28;20464;-78
2023/06/18 12:45:06;;;;;;;13.60;12.50;;;26.90;83.40;;;;;;5054317;28;20539;-78